createdAt,value
2018-06-21T00:00:42.806Z,6.30
2018-06-21T00:01:42.907Z,6.20
2018-06-21T00:02:43.020Z,6.00
2018-06-21T00:03:43.119Z,5.90
2018-06-21T00:04:43.218Z,6.10
2018-06-21T00:05:43.318Z,6.50
2018-06-21T00:06:43.417Z,6.60
2018-06-21T00:07:43.515Z,6.80
2018-06-21T00:08:43.625Z,5.90
2018-06-21T00:09:43.746Z,6.10
2018-06-21T00:10:43.845Z,6.00
2018-06-21T00:11:43.944Z,6.70
2018-06-21T00:12:44.042Z,6.30
2018-06-21T00:13:44.143Z,6.00
2018-06-21T00:14:44.245Z,5.90
2018-06-21T00:15:44.342Z,6.40
2018-06-21T00:16:44.443Z,6.20
2018-06-21T00:17:44.542Z,6.30
2018-06-21T00:18:44.643Z,5.90
2018-06-21T00:19:44.740Z,6.20
2018-06-21T00:20:44.841Z,6.20
2018-06-21T00:21:44.942Z,6.10
2018-06-21T00:22:45.039Z,6.60
2018-06-21T00:23:45.154Z,6.10
2018-06-21T00:24:45.253Z,5.90
2018-06-21T00:25:45.349Z,6.20
2018-06-21T00:26:45.450Z,5.90
2018-06-21T00:27:45.551Z,6.20
2018-06-21T00:28:45.649Z,6.50
2018-06-21T00:29:45.751Z,6.80
2018-06-21T00:30:45.868Z,6.50
2018-06-21T00:31:45.957Z,6.50
2018-06-21T00:32:46.096Z,6.90
2018-06-21T00:33:46.182Z,5.80
2018-06-21T00:34:46.274Z,6.40
2018-06-21T00:35:46.397Z,6.50
2018-06-21T00:36:46.481Z,6.10
2018-06-21T00:37:46.571Z,6.50
2018-06-21T00:38:46.666Z,6.30
2018-06-21T00:39:46.781Z,6.30
2018-06-21T00:40:46.880Z,6.30
2018-06-21T00:41:47.000Z,6.50
2018-06-21T00:42:47.175Z,6.40
2018-06-21T00:43:47.243Z,6.60
2018-06-21T00:44:47.368Z,6.80
2018-06-21T00:45:47.491Z,6.00
2018-06-21T00:46:47.624Z,6.80
2018-06-21T00:47:47.725Z,6.20
2018-06-21T00:48:47.820Z,6.40
2018-06-21T00:49:47.924Z,6.20
2018-06-21T00:50:48.034Z,6.70
2018-06-21T00:51:48.141Z,6.30
2018-06-21T00:52:48.242Z,6.30
2018-06-21T00:53:48.334Z,6.50
2018-06-21T00:54:48.434Z,6.80
2018-06-21T00:55:48.554Z,6.00
2018-06-21T00:56:48.662Z,6.60
2018-06-21T00:57:48.770Z,6.00
2018-06-21T00:58:48.883Z,6.20
2018-06-21T00:59:48.976Z,6.40
2018-06-21T01:00:49.075Z,6.50
2018-06-21T01:01:49.161Z,6.20
2018-06-21T01:02:49.256Z,6.20
2018-06-21T01:03:49.347Z,6.10
2018-06-21T01:04:49.447Z,6.20
2018-06-21T01:05:49.542Z,6.10
2018-06-21T01:06:49.637Z,6.10
2018-06-21T01:07:49.747Z,6.70
2018-06-21T01:08:49.854Z,6.30
2018-06-21T01:09:49.968Z,6.70
2018-06-21T01:10:50.074Z,6.60
2018-06-21T01:11:50.191Z,6.70
2018-06-21T01:12:50.309Z,6.30
2018-06-21T01:13:50.405Z,6.40
2018-06-21T01:14:50.531Z,6.30
2018-06-21T01:15:50.630Z,6.40
2018-06-21T01:16:50.721Z,6.70
2018-06-21T01:17:50.820Z,6.30
2018-06-21T01:18:50.924Z,6.50
2018-06-21T01:19:51.027Z,6.20
2018-06-21T01:20:51.135Z,6.30
2018-06-21T01:21:51.240Z,6.10
2018-06-21T01:22:51.336Z,6.20
2018-06-21T01:23:51.444Z,6.50
2018-06-21T01:24:51.524Z,6.50
2018-06-21T01:25:51.627Z,6.30
2018-06-21T01:26:51.722Z,6.50
2018-06-21T01:27:51.809Z,6.70
2018-06-21T01:28:51.935Z,6.40
2018-06-21T01:29:52.017Z,6.50
2018-06-21T01:30:52.117Z,6.20
2018-06-21T01:31:52.228Z,6.50
2018-06-21T01:32:52.331Z,6.60
2018-06-21T01:33:52.433Z,6.30
2018-06-21T01:34:52.536Z,6.80
2018-06-21T01:35:52.632Z,6.30
2018-06-21T01:36:52.732Z,6.50
2018-06-21T01:37:52.828Z,6.60
2018-06-21T01:38:52.928Z,6.40
2018-06-21T01:39:53.026Z,6.40
2018-06-21T01:40:53.135Z,6.10
2018-06-21T01:41:53.233Z,6.60
2018-06-21T01:42:53.325Z,6.10
2018-06-21T01:43:53.425Z,6.10
2018-06-21T01:44:53.523Z,6.10
2018-06-21T01:45:53.635Z,6.20
2018-06-21T01:46:53.739Z,6.00
2018-06-21T01:47:53.837Z,6.30
2018-06-21T01:48:53.941Z,6.00
2018-06-21T01:49:54.058Z,5.90
2018-06-21T01:50:54.156Z,6.00
2018-06-21T01:51:54.262Z,6.00
2018-06-21T01:52:54.402Z,6.50
2018-06-21T01:53:54.497Z,6.20
2018-06-21T01:54:54.599Z,6.50
2018-06-21T01:55:54.701Z,6.40
2018-06-21T01:56:54.804Z,6.30
2018-06-21T01:57:54.904Z,6.50
2018-06-21T01:58:55.008Z,6.40
2018-06-21T01:59:55.100Z,6.30
2018-06-21T02:00:55.197Z,6.20
2018-06-21T02:01:55.290Z,6.60
2018-06-21T02:02:55.410Z,6.20
2018-06-21T02:03:55.525Z,6.30
2018-06-21T02:04:55.625Z,6.40
2018-06-21T02:05:55.733Z,6.20
2018-06-21T02:06:55.856Z,6.40
2018-06-21T02:07:55.949Z,6.50
2018-06-21T02:08:56.040Z,6.30
2018-06-21T02:09:56.133Z,6.60
2018-06-21T02:10:56.291Z,6.20
2018-06-21T02:11:56.347Z,6.40
2018-06-21T02:12:56.441Z,6.30
2018-06-21T02:13:56.542Z,6.70
2018-06-21T02:14:56.648Z,6.30
2018-06-21T02:15:56.729Z,6.30
2018-06-21T02:16:56.821Z,6.30
2018-06-21T02:17:56.918Z,6.50
2018-06-21T02:18:57.014Z,6.20
2018-06-21T02:19:57.117Z,6.30
2018-06-21T02:20:57.222Z,6.20
2018-06-21T02:21:57.315Z,5.80
2018-06-21T02:22:57.412Z,6.20
2018-06-21T02:23:57.514Z,6.00
2018-06-21T02:24:57.653Z,6.30
2018-06-21T02:25:57.746Z,6.20
2018-06-21T02:26:57.852Z,6.50
2018-06-21T02:27:57.948Z,6.40
2018-06-21T02:28:58.043Z,6.00
2018-06-21T02:29:58.145Z,6.40
2018-06-21T02:30:58.248Z,6.50
2018-06-21T02:31:58.375Z,6.90
2018-06-21T02:32:58.553Z,6.00
2018-06-21T02:33:58.525Z,6.30
2018-06-21T02:34:58.634Z,6.10
2018-06-21T02:35:58.715Z,6.40
2018-06-21T02:36:58.829Z,6.00
2018-06-21T02:37:58.930Z,6.60
2018-06-21T02:38:59.030Z,5.90
2018-06-21T02:39:59.122Z,6.30
2018-06-21T02:40:59.222Z,6.30
2018-06-21T02:41:59.321Z,6.40
2018-06-21T02:42:59.427Z,6.70
2018-06-21T02:43:59.529Z,6.30
2018-06-21T02:44:59.622Z,6.30
2018-06-21T02:45:59.713Z,6.10
2018-06-21T02:46:59.813Z,6.10
2018-06-21T02:47:59.911Z,6.20
2018-06-21T02:49:00.015Z,6.60
2018-06-21T02:50:00.119Z,6.10
2018-06-21T02:51:00.221Z,6.00
2018-06-21T02:52:00.319Z,6.00
2018-06-21T02:53:00.420Z,6.20
2018-06-21T02:54:00.520Z,6.30
2018-06-21T02:55:00.617Z,6.40
2018-06-21T02:56:00.716Z,5.90
2018-06-21T02:57:00.814Z,6.10
2018-06-21T02:58:00.912Z,6.40
2018-06-21T02:59:01.010Z,5.70
2018-06-21T03:00:01.108Z,5.80
2018-06-21T03:01:01.204Z,6.20
2018-06-21T03:02:01.304Z,5.80
2018-06-21T03:03:01.400Z,6.20
2018-06-21T03:04:01.640Z,6.20
2018-06-21T03:05:01.599Z,6.20
2018-06-21T03:06:01.714Z,6.20
2018-06-21T03:07:01.799Z,6.10
2018-06-21T03:08:01.901Z,6.00
2018-06-21T03:09:01.995Z,6.10
2018-06-21T03:10:02.091Z,5.90
2018-06-21T03:11:02.194Z,6.00
2018-06-21T03:12:02.294Z,6.10
2018-06-21T03:13:02.381Z,6.00
2018-06-21T03:14:02.494Z,5.90
2018-06-21T03:15:02.594Z,5.90
2018-06-21T03:16:02.694Z,6.20
2018-06-21T03:17:02.792Z,6.30
2018-06-21T03:18:02.891Z,5.80
2018-06-21T03:19:02.989Z,5.70
2018-06-21T03:20:03.078Z,5.80
2018-06-21T03:21:03.175Z,5.50
2018-06-21T03:22:03.285Z,5.80
2018-06-21T03:23:03.375Z,5.90
2018-06-21T03:24:03.496Z,6.10
2018-06-21T03:25:03.578Z,6.30
2018-06-21T03:26:03.671Z,6.00
2018-06-21T03:27:03.774Z,5.90
2018-06-21T03:28:03.870Z,6.00
2018-06-21T03:29:03.971Z,6.20
2018-06-21T03:30:04.071Z,6.10
2018-06-21T03:31:04.172Z,6.10
2018-06-21T03:32:04.273Z,5.60
2018-06-21T03:33:04.373Z,6.30
2018-06-21T03:34:04.474Z,6.30
2018-06-21T03:35:04.570Z,5.80
2018-06-21T03:36:04.667Z,6.30
2018-06-21T03:37:04.766Z,6.10
2018-06-21T03:38:04.863Z,6.20
2018-06-21T03:39:04.962Z,6.20
2018-06-21T03:40:05.086Z,6.50
2018-06-21T03:41:05.185Z,6.20
2018-06-21T03:42:05.284Z,6.00
2018-06-21T03:43:05.382Z,5.80
2018-06-21T03:44:05.483Z,6.30
2018-06-21T03:45:05.586Z,6.00
2018-06-21T03:46:05.682Z,6.50
2018-06-21T03:47:05.802Z,5.70
2018-06-21T03:48:05.892Z,6.40
2018-06-21T03:49:05.995Z,6.10
2018-06-21T03:50:06.096Z,6.10
2018-06-21T03:51:06.193Z,6.00
2018-06-21T03:52:06.336Z,6.20
2018-06-21T03:53:06.395Z,5.60
2018-06-21T03:54:06.516Z,5.80
2018-06-21T03:55:06.611Z,5.70
2018-06-21T03:56:06.710Z,5.90
2018-06-21T03:57:06.808Z,6.20
2018-06-21T03:58:06.908Z,6.20
2018-06-21T03:59:07.008Z,6.10
2018-06-21T04:00:07.114Z,5.90
2018-06-21T04:01:07.223Z,6.10
2018-06-21T04:02:07.322Z,6.00
2018-06-21T04:03:07.428Z,6.50
2018-06-21T04:04:07.524Z,6.10
2018-06-21T04:05:07.619Z,6.10
2018-06-21T04:06:07.722Z,6.00
2018-06-21T04:07:07.823Z,6.20
2018-06-21T04:08:07.936Z,6.10
2018-06-21T04:09:08.034Z,6.40
2018-06-21T04:10:08.134Z,6.00
2018-06-21T04:11:08.239Z,6.00
2018-06-21T04:12:08.333Z,6.10
2018-06-21T04:13:08.432Z,6.20
2018-06-21T04:14:08.534Z,6.30
2018-06-21T04:15:08.646Z,5.90
2018-06-21T04:16:08.747Z,6.60
2018-06-21T04:17:08.849Z,6.00
2018-06-21T04:18:08.946Z,6.30
2018-06-21T04:19:09.045Z,6.10
2018-06-21T04:20:09.142Z,6.40
2018-06-21T04:21:09.242Z,5.50
2018-06-21T04:22:09.359Z,6.50
2018-06-21T04:23:09.460Z,6.50
2018-06-21T04:24:09.559Z,6.00
2018-06-21T04:25:09.660Z,6.10
2018-06-21T04:26:09.758Z,6.50
2018-06-21T04:27:09.857Z,7.00
2018-06-21T04:28:09.956Z,6.50
2018-06-21T04:29:10.071Z,6.30
2018-06-21T04:30:10.171Z,6.80
2018-06-21T04:31:10.272Z,6.60
2018-06-21T04:32:10.371Z,7.00
2018-06-21T04:33:10.468Z,6.90
2018-06-21T04:34:10.570Z,7.30
2018-06-21T04:35:10.668Z,6.80
2018-06-21T04:36:10.787Z,7.20
2018-06-21T04:37:10.890Z,7.10
2018-06-21T04:38:10.986Z,6.60
2018-06-21T04:39:11.085Z,6.90
2018-06-21T04:40:11.185Z,7.10
2018-06-21T04:41:11.283Z,6.50
2018-06-21T04:42:11.384Z,7.00
2018-06-21T04:43:11.496Z,6.70
2018-06-21T04:44:11.595Z,6.80
2018-06-21T04:45:11.696Z,6.30
2018-06-21T04:46:11.794Z,6.40
2018-06-21T04:47:11.899Z,6.90
2018-06-21T04:48:11.996Z,6.50
2018-06-21T04:49:12.095Z,6.70
2018-06-21T04:50:12.193Z,7.00
2018-06-21T04:51:12.294Z,6.90
2018-06-21T04:52:12.394Z,6.40
2018-06-21T04:53:12.493Z,7.60
2018-06-21T04:54:12.592Z,7.20
2018-06-21T04:55:12.693Z,7.00
2018-06-21T04:56:12.791Z,7.20
2018-06-21T04:57:12.889Z,7.00
2018-06-21T04:58:12.991Z,7.20
2018-06-21T04:59:13.090Z,7.60
2018-06-21T05:00:13.193Z,7.00
2018-06-21T05:01:13.289Z,6.80
2018-06-21T05:02:13.388Z,6.90
2018-06-21T05:03:13.491Z,7.80
2018-06-21T05:04:13.599Z,7.50
2018-06-21T05:05:13.695Z,7.90
2018-06-21T05:06:13.795Z,7.70
2018-06-21T05:07:13.892Z,7.30
2018-06-21T05:08:13.991Z,7.70
2018-06-21T05:09:14.093Z,8.40
2018-06-21T05:10:14.191Z,7.90
2018-06-21T05:11:14.282Z,7.70
2018-06-21T05:12:14.391Z,7.30
2018-06-21T05:13:14.489Z,8.10
2018-06-21T05:14:14.590Z,7.40
2018-06-21T05:15:14.680Z,7.90
2018-06-21T05:16:14.781Z,8.00
2018-06-21T05:17:14.875Z,7.70
2018-06-21T05:18:15.032Z,8.20
2018-06-21T05:19:15.073Z,8.30
2018-06-21T05:20:15.172Z,7.80
2018-06-21T05:21:15.273Z,8.40
2018-06-21T05:22:15.374Z,8.20
2018-06-21T05:23:15.476Z,8.60
2018-06-21T05:24:15.577Z,9.20
2018-06-21T05:25:15.676Z,8.30
2018-06-21T05:26:15.774Z,8.20
2018-06-21T05:27:15.878Z,7.50
2018-06-21T05:28:15.978Z,7.40
2018-06-21T05:29:16.074Z,7.90
2018-06-21T05:30:16.183Z,7.20
2018-06-21T05:31:16.308Z,7.00
2018-06-21T05:32:16.532Z,7.10
2018-06-21T05:33:16.511Z,7.20
2018-06-21T05:34:16.653Z,7.00
2018-06-21T05:35:16.775Z,7.20
2018-06-21T05:36:16.812Z,7.10
2018-06-21T05:37:16.944Z,7.40
2018-06-21T05:38:17.056Z,7.10
2018-06-21T05:39:17.151Z,7.30
2018-06-21T05:40:17.258Z,7.20
2018-06-21T05:41:17.374Z,7.00
2018-06-21T05:42:17.469Z,7.00
2018-06-21T05:43:17.570Z,7.30
2018-06-21T05:44:17.691Z,7.70
2018-06-21T05:45:17.773Z,7.40
2018-06-21T05:46:17.897Z,7.30
2018-06-21T05:47:18.021Z,7.80
2018-06-21T05:48:18.117Z,7.20
2018-06-21T05:49:18.263Z,7.30
2018-06-21T05:50:18.490Z,7.20
2018-06-21T05:51:18.487Z,7.00
2018-06-21T05:52:18.585Z,7.20
2018-06-21T05:53:18.714Z,7.40
2018-06-21T05:54:18.850Z,7.30
2018-06-21T05:55:18.939Z,7.40
2018-06-21T05:56:19.051Z,7.00
2018-06-21T05:57:19.183Z,7.10
2018-06-21T05:58:19.288Z,7.10
2018-06-21T05:59:19.419Z,7.00
2018-06-21T06:00:19.533Z,7.10
2018-06-21T06:01:19.658Z,6.90
2018-06-21T06:02:19.756Z,6.80
2018-06-21T06:03:19.859Z,7.00
2018-06-21T06:04:19.980Z,6.80
2018-06-21T06:05:20.076Z,6.90
2018-06-21T06:06:20.252Z,7.10
2018-06-21T06:07:20.263Z,6.80
2018-06-21T06:08:20.381Z,6.70
2018-06-21T06:09:20.480Z,6.80
2018-06-21T06:10:20.661Z,6.40
2018-06-21T06:11:20.679Z,6.40
2018-06-21T06:12:20.781Z,6.10
2018-06-21T06:13:20.896Z,5.90
2018-06-21T06:14:21.007Z,6.10
2018-06-21T06:15:21.121Z,6.40
2018-06-21T06:16:21.239Z,6.00
2018-06-21T06:17:21.382Z,6.40
2018-06-21T06:18:21.486Z,6.00
2018-06-21T06:19:21.594Z,5.80
2018-06-21T06:20:21.706Z,5.70
2018-06-21T06:21:21.838Z,5.70
2018-06-21T06:22:21.945Z,4.80
2018-06-21T06:23:22.043Z,4.50
2018-06-21T06:24:22.152Z,4.70
2018-06-21T06:25:22.264Z,3.70
2018-06-21T06:26:22.363Z,4.00
2018-06-21T06:27:22.482Z,4.00
2018-06-21T06:28:22.583Z,4.40
2018-06-21T06:29:22.709Z,3.80
2018-06-21T06:30:22.820Z,4.20
2018-06-21T06:31:22.928Z,4.10
2018-06-21T06:32:23.043Z,4.20
2018-06-21T06:33:23.195Z,3.80
2018-06-21T06:34:23.312Z,4.10
2018-06-21T06:35:23.422Z,4.00
2018-06-21T06:36:23.551Z,3.70
2018-06-21T06:37:23.655Z,4.30
2018-06-21T06:38:23.772Z,4.00
2018-06-21T06:39:23.890Z,3.80
2018-06-21T06:40:24.038Z,3.90
2018-06-21T06:41:24.097Z,3.70
2018-06-21T06:42:24.197Z,3.90
2018-06-21T06:43:24.318Z,4.10
2018-06-21T06:44:24.427Z,3.90
2018-06-21T06:45:24.534Z,4.30
2018-06-21T06:46:24.642Z,4.10
2018-06-21T06:47:24.757Z,3.80
2018-06-21T06:48:24.867Z,4.40
2018-06-21T06:49:24.972Z,4.70
2018-06-21T06:50:25.061Z,5.60
2018-06-21T06:51:25.245Z,5.40
2018-06-21T06:52:25.370Z,5.10
2018-06-21T06:53:25.524Z,5.40
2018-06-21T06:54:25.640Z,5.50
2018-06-21T06:55:25.733Z,6.10
2018-06-21T06:56:25.862Z,6.30
2018-06-21T06:57:25.974Z,5.60
2018-06-21T06:58:26.143Z,5.80
2018-06-21T06:59:26.211Z,5.60
2018-06-21T07:00:26.344Z,5.40
2018-06-21T07:01:26.458Z,5.50
2018-06-21T07:02:26.556Z,5.80
2018-06-21T07:03:26.665Z,5.30
2018-06-21T07:04:26.772Z,5.70
2018-06-21T07:05:26.873Z,5.00
2018-06-21T07:06:26.966Z,5.40
2018-06-21T07:07:27.071Z,5.00
2018-06-21T07:08:27.198Z,5.00
2018-06-21T07:09:27.273Z,5.50
2018-06-21T07:10:27.372Z,5.50
2018-06-21T07:11:27.481Z,5.40
2018-06-21T07:12:27.586Z,5.80
2018-06-21T07:13:27.686Z,5.40
2018-06-21T07:14:27.813Z,5.30
2018-06-21T07:15:27.895Z,5.10
2018-06-21T07:16:27.995Z,5.30
2018-06-21T07:17:28.100Z,6.00
2018-06-21T07:18:28.205Z,5.80
2018-06-21T07:19:28.307Z,5.50
2018-06-21T07:20:28.431Z,5.80
2018-06-21T07:21:28.549Z,5.50
2018-06-21T07:22:28.667Z,5.40
2018-06-21T07:23:28.771Z,5.30
2018-06-21T07:24:28.866Z,5.40
2018-06-21T07:25:28.977Z,5.90
2018-06-21T07:26:29.080Z,5.40
2018-06-21T07:27:29.187Z,5.70
2018-06-21T07:28:29.302Z,5.50
2018-06-21T07:29:29.396Z,5.20
2018-06-21T07:30:29.508Z,4.90
2018-06-21T07:31:29.600Z,5.00
2018-06-21T07:32:29.705Z,5.30
2018-06-21T07:33:29.812Z,4.70
2018-06-21T07:34:29.900Z,4.80
2018-06-21T07:35:30.001Z,4.70
2018-06-21T07:36:30.101Z,4.80
2018-06-21T07:37:30.224Z,4.50
2018-06-21T07:38:30.313Z,4.50
2018-06-21T07:39:30.405Z,4.10
2018-06-21T07:40:30.516Z,4.50
2018-06-21T07:41:30.645Z,4.20
2018-06-21T07:42:30.743Z,4.50
2018-06-21T07:43:30.850Z,4.30
2018-06-21T07:44:30.948Z,4.00
2018-06-21T07:45:31.053Z,4.40
2018-06-21T07:46:31.164Z,4.40
2018-06-21T07:47:31.271Z,4.20
2018-06-21T07:48:31.376Z,4.50
2018-06-21T07:49:31.501Z,4.70
2018-06-21T07:50:31.649Z,4.30
2018-06-21T07:51:31.749Z,4.50
2018-06-21T07:52:31.855Z,4.40
2018-06-21T07:53:31.964Z,4.40
2018-06-21T07:54:32.068Z,4.10
2018-06-21T07:55:32.175Z,4.20
2018-06-21T07:56:32.278Z,4.10
2018-06-21T07:57:32.386Z,4.20
2018-06-21T07:58:32.495Z,4.40
2018-06-21T07:59:32.620Z,4.30
2018-06-21T08:00:32.703Z,4.20
2018-06-21T08:01:32.825Z,3.90
2018-06-21T08:02:32.921Z,4.00
2018-06-21T08:03:33.029Z,4.00
2018-06-21T08:04:33.132Z,4.00
2018-06-21T08:05:33.242Z,3.80
2018-06-21T08:06:33.347Z,3.80
2018-06-21T08:07:33.456Z,4.20
2018-06-21T08:08:33.570Z,3.90
2018-06-21T08:09:33.734Z,4.10
2018-06-21T08:10:33.840Z,3.60
2018-06-21T08:11:33.941Z,3.60
2018-06-21T08:12:34.049Z,3.60
2018-06-21T08:13:34.159Z,3.60
2018-06-21T08:14:34.268Z,3.40
2018-06-21T08:15:34.370Z,3.50
2018-06-21T08:16:34.481Z,3.60
2018-06-21T08:17:34.586Z,3.80
2018-06-21T08:18:34.692Z,3.80
2018-06-21T08:19:34.797Z,3.30
2018-06-21T08:20:34.900Z,3.40
2018-06-21T08:21:35.007Z,3.40
2018-06-21T08:22:35.117Z,3.50
2018-06-21T08:23:35.226Z,3.50
2018-06-21T08:24:35.336Z,3.00
2018-06-21T08:25:35.443Z,3.40
2018-06-21T08:26:35.548Z,3.30
2018-06-21T08:27:35.661Z,3.20
2018-06-21T08:28:35.761Z,3.20
2018-06-21T08:29:35.867Z,3.60
2018-06-21T08:30:35.973Z,4.00
2018-06-21T08:31:36.081Z,3.40
2018-06-21T08:32:36.193Z,3.40
2018-06-21T08:33:36.296Z,3.50
2018-06-21T08:34:36.402Z,3.40
2018-06-21T08:35:36.553Z,3.20
2018-06-21T08:36:36.658Z,3.10
2018-06-21T08:37:36.763Z,2.80
2018-06-21T08:38:36.869Z,3.30
2018-06-21T08:39:36.977Z,3.20
2018-06-21T08:40:37.084Z,2.70
2018-06-21T08:41:37.192Z,3.00
2018-06-21T08:42:37.305Z,3.00
2018-06-21T08:43:37.410Z,2.40
2018-06-21T08:44:37.511Z,3.10
2018-06-21T08:45:37.618Z,2.60
2018-06-21T08:46:37.723Z,2.60
2018-06-21T08:47:37.828Z,2.80
2018-06-21T08:48:37.933Z,2.90
2018-06-21T08:49:38.039Z,2.50
2018-06-21T08:50:38.189Z,2.80
2018-06-21T08:51:38.252Z,2.70
2018-06-21T08:52:38.355Z,2.50
2018-06-21T08:53:38.463Z,2.60
2018-06-21T08:54:38.567Z,2.70
2018-06-21T08:55:38.724Z,2.30
2018-06-21T08:56:38.782Z,3.10
2018-06-21T08:57:38.887Z,3.00
2018-06-21T08:58:39.004Z,2.80
2018-06-21T08:59:39.103Z,2.70
2018-06-21T09:00:39.209Z,2.90
2018-06-21T09:01:39.315Z,3.10
2018-06-21T09:02:39.423Z,2.90
2018-06-21T09:03:39.560Z,2.80
2018-06-21T09:04:39.631Z,3.00
2018-06-21T09:05:39.745Z,2.80
2018-06-21T09:06:39.849Z,3.00
2018-06-21T09:07:39.956Z,3.10
2018-06-21T09:08:40.061Z,3.30
2018-06-21T09:09:40.174Z,2.90
2018-06-21T09:10:40.272Z,3.20
2018-06-21T09:11:40.374Z,3.00
2018-06-21T09:12:40.478Z,3.00
2018-06-21T09:13:40.574Z,3.30
2018-06-21T09:14:40.708Z,3.20
2018-06-21T09:15:40.834Z,3.00
2018-06-21T09:16:40.935Z,3.50
2018-06-21T09:17:41.065Z,3.30
2018-06-21T09:18:41.151Z,3.00
2018-06-21T09:19:41.259Z,2.50
2018-06-21T09:20:41.364Z,2.80
2018-06-21T09:21:41.472Z,2.80
2018-06-21T09:22:41.578Z,3.30
2018-06-21T09:23:41.683Z,2.80
2018-06-21T09:24:41.788Z,2.70
2018-06-21T09:25:41.894Z,3.00
2018-06-21T09:26:42.008Z,2.70
2018-06-21T09:27:42.115Z,2.80
2018-06-21T09:28:42.221Z,3.20
2018-06-21T09:29:42.323Z,3.00
2018-06-21T09:30:42.430Z,3.00
2018-06-21T09:31:42.534Z,3.10
2018-06-21T09:32:42.639Z,3.00
2018-06-21T09:33:42.743Z,3.70
2018-06-21T09:34:42.858Z,3.70
2018-06-21T09:35:42.964Z,3.20
2018-06-21T09:36:43.070Z,3.50
2018-06-21T09:37:43.174Z,3.80
2018-06-21T09:38:43.281Z,3.80
2018-06-21T09:39:43.389Z,3.70
2018-06-21T09:40:43.492Z,3.80
2018-06-21T09:41:43.597Z,4.30
2018-06-21T09:42:43.696Z,4.00
2018-06-21T09:43:50.299Z,3.90
2018-06-21T09:44:43.905Z,4.40
2018-06-21T09:45:44.010Z,4.40
2018-06-21T09:46:44.100Z,4.80
2018-06-21T09:47:44.205Z,5.10
2018-06-21T09:48:44.309Z,4.50
2018-06-21T09:49:44.409Z,4.70
2018-06-21T09:50:44.512Z,4.90
2018-06-21T09:51:44.617Z,4.80
2018-06-21T09:52:44.722Z,5.30
2018-06-21T09:53:44.829Z,5.20
2018-06-21T09:54:44.935Z,5.30
2018-06-21T09:55:45.041Z,5.20
2018-06-21T09:56:45.144Z,5.50
2018-06-21T09:57:45.296Z,5.80
2018-06-21T09:58:45.350Z,5.70
2018-06-21T09:59:45.453Z,5.30
2018-06-21T10:00:45.559Z,5.60
2018-06-21T10:01:45.664Z,5.60
2018-06-21T10:02:45.769Z,5.20
2018-06-21T10:03:45.875Z,4.90
2018-06-21T10:04:45.978Z,5.00
2018-06-21T10:05:46.079Z,5.60
2018-06-21T10:06:46.179Z,5.60
2018-06-21T10:07:47.233Z,5.40
2018-06-21T10:08:46.344Z,5.90
2018-06-21T10:09:46.456Z,5.90
2018-06-21T10:10:46.556Z,5.60
2018-06-21T10:11:46.672Z,5.90
2018-06-21T10:12:46.785Z,5.80
2018-06-21T10:13:46.873Z,5.80
2018-06-21T10:14:47.100Z,5.60
2018-06-21T10:15:47.112Z,5.20
2018-06-21T10:16:47.198Z,5.20
2018-06-21T10:17:47.375Z,5.70
2018-06-21T10:18:47.365Z,5.30
2018-06-21T10:19:47.542Z,5.00
2018-06-21T10:20:47.602Z,5.00
2018-06-21T10:21:47.702Z,5.30
2018-06-21T10:22:47.824Z,5.00
2018-06-21T10:23:47.933Z,5.90
2018-06-21T10:24:48.058Z,5.40
2018-06-21T10:25:48.194Z,5.00
2018-06-21T10:26:48.290Z,5.40
2018-06-21T10:27:48.396Z,4.20
2018-06-21T10:28:48.500Z,4.40
2018-06-21T10:29:48.611Z,4.50
2018-06-21T10:30:48.844Z,4.90
2018-06-21T10:31:48.813Z,4.50
2018-06-21T10:32:48.904Z,4.80
2018-06-21T10:33:49.075Z,4.80
2018-06-21T10:34:49.071Z,4.80
2018-06-21T10:35:49.215Z,4.80
2018-06-21T10:36:49.368Z,4.70
2018-06-21T10:37:49.470Z,4.90
2018-06-21T10:38:49.560Z,4.60
2018-06-21T10:39:49.731Z,4.60
2018-06-21T10:40:49.799Z,5.00
2018-06-21T10:41:49.787Z,4.70
2018-06-21T10:42:49.878Z,5.50
2018-06-21T10:43:49.989Z,5.70
2018-06-21T10:44:50.094Z,5.00
2018-06-21T10:45:50.190Z,5.20
2018-06-21T10:46:50.303Z,5.30
2018-06-21T10:47:50.394Z,5.10
2018-06-21T10:48:50.485Z,5.10
2018-06-21T10:49:50.604Z,5.10
2018-06-21T10:50:50.828Z,4.90
2018-06-21T10:51:50.824Z,5.00
2018-06-21T10:52:50.953Z,5.00
2018-06-21T10:53:51.086Z,5.10
2018-06-21T10:54:51.208Z,4.80
2018-06-21T10:55:51.301Z,8.10
2018-06-21T10:56:51.401Z,10.10
2018-06-21T10:57:51.493Z,7.50
2018-06-21T10:58:51.605Z,5.10
2018-06-21T10:59:51.692Z,5.10
2018-06-21T11:00:51.796Z,5.70
2018-06-21T11:01:51.916Z,4.60
2018-06-21T11:02:52.093Z,4.60
2018-06-21T11:03:52.107Z,5.00
2018-06-21T11:04:52.205Z,5.10
2018-06-21T11:05:52.432Z,4.40
2018-06-21T11:06:52.407Z,4.30
2018-06-21T11:07:52.516Z,4.20
2018-06-21T11:08:52.614Z,4.10
2018-06-21T11:09:52.744Z,4.80
2018-06-21T11:10:52.887Z,4.60
2018-06-21T11:11:52.991Z,4.30
2018-06-21T11:12:53.101Z,4.30
2018-06-21T11:13:53.197Z,4.20
2018-06-21T11:14:53.434Z,4.80
2018-06-21T11:15:53.458Z,4.20
2018-06-21T11:16:53.573Z,4.70
2018-06-21T11:17:53.651Z,4.40
2018-06-21T11:18:53.740Z,4.50
2018-06-21T11:19:53.869Z,4.20
2018-06-21T11:20:53.968Z,4.90
2018-06-21T11:21:54.083Z,5.00
2018-06-21T11:22:54.190Z,4.90
2018-06-21T11:23:54.290Z,4.50
2018-06-21T11:24:54.401Z,4.50
2018-06-21T11:25:54.506Z,4.50
2018-06-21T11:26:54.604Z,4.30
2018-06-21T11:27:54.710Z,4.40
2018-06-21T11:28:54.796Z,4.90
2018-06-21T11:29:54.902Z,4.60
2018-06-21T11:30:55.003Z,4.70
2018-06-21T11:31:55.106Z,5.10
2018-06-21T11:32:55.215Z,4.70
2018-06-21T11:33:55.317Z,4.90
2018-06-21T11:34:55.408Z,4.60
2018-06-21T11:35:55.506Z,4.70
2018-06-21T11:36:55.612Z,4.50
2018-06-21T11:37:55.710Z,4.60
2018-06-21T11:38:55.804Z,4.20
2018-06-21T11:39:55.899Z,4.30
2018-06-21T11:40:56.005Z,4.00
2018-06-21T11:41:56.099Z,3.70
2018-06-21T11:42:56.202Z,3.90
2018-06-21T11:43:56.291Z,3.90
2018-06-21T11:44:56.395Z,4.00
2018-06-21T11:45:56.495Z,4.00
2018-06-21T11:46:56.591Z,3.80
2018-06-21T11:47:56.692Z,4.10
2018-06-21T11:48:56.796Z,3.50
2018-06-21T11:49:56.899Z,3.70
2018-06-21T11:50:56.994Z,3.90
2018-06-21T11:51:57.096Z,3.70
2018-06-21T11:52:57.197Z,3.40
2018-06-21T11:53:57.302Z,3.10
2018-06-21T11:54:57.411Z,3.70
2018-06-21T11:55:57.513Z,3.30
2018-06-21T11:56:57.619Z,3.10
2018-06-21T11:57:57.721Z,2.70
2018-06-21T11:58:57.822Z,2.50
2018-06-21T11:59:57.933Z,2.90
2018-06-21T12:00:58.033Z,2.60
2018-06-21T12:01:58.138Z,2.60
2018-06-21T12:02:58.229Z,2.70
2018-06-21T12:03:58.333Z,2.80
2018-06-21T12:04:58.450Z,2.80
2018-06-21T12:05:58.551Z,2.90
2018-06-21T12:06:58.656Z,2.90
2018-06-21T12:07:58.780Z,2.60
2018-06-21T12:08:58.876Z,2.60
2018-06-21T12:09:58.971Z,2.70
2018-06-21T12:10:59.080Z,2.70
2018-06-21T12:11:59.182Z,2.50
2018-06-21T12:12:59.289Z,3.00
2018-06-21T12:13:59.397Z,2.50
2018-06-21T12:14:59.501Z,2.30
2018-06-21T12:15:59.608Z,2.30
2018-06-21T12:16:59.715Z,2.30
2018-06-21T12:17:59.819Z,1.90
2018-06-21T12:18:59.923Z,2.00
2018-06-21T12:20:00.048Z,2.10
2018-06-21T12:21:00.148Z,1.80
2018-06-21T12:22:00.246Z,2.00
2018-06-21T12:23:00.347Z,2.30
2018-06-21T12:24:00.450Z,2.10
2018-06-21T12:25:00.555Z,1.90
2018-06-21T12:26:00.742Z,1.70
2018-06-21T12:27:00.788Z,1.60
2018-06-21T12:28:00.882Z,1.70
2018-06-21T12:29:00.983Z,1.70
2018-06-21T12:30:01.089Z,1.70
2018-06-21T12:31:01.196Z,1.70
2018-06-21T12:32:01.303Z,1.80
2018-06-21T12:33:01.426Z,1.90
2018-06-21T12:34:01.528Z,1.90
2018-06-21T12:35:01.630Z,1.70
2018-06-21T12:36:01.735Z,1.80
2018-06-21T12:37:01.831Z,1.80
2018-06-21T12:38:01.981Z,1.90
2018-06-21T12:39:02.037Z,2.00
2018-06-21T12:40:02.149Z,2.10
2018-06-21T12:41:02.245Z,2.20
2018-06-21T12:42:02.351Z,1.90
2018-06-21T12:43:02.454Z,2.00
2018-06-21T12:44:02.557Z,2.00
2018-06-21T12:45:02.662Z,1.80
2018-06-21T12:46:02.767Z,1.70
2018-06-21T12:47:02.874Z,1.50
2018-06-21T12:48:02.980Z,1.50
2018-06-21T12:49:03.087Z,1.70
2018-06-21T12:50:03.189Z,1.50
2018-06-21T12:51:03.295Z,1.40
2018-06-21T12:52:03.397Z,1.40
2018-06-21T12:53:03.498Z,1.30
2018-06-21T12:54:03.604Z,1.60
2018-06-21T12:55:03.705Z,1.30
2018-06-21T12:56:03.810Z,1.40
2018-06-21T12:57:03.914Z,1.50
2018-06-21T12:58:04.059Z,1.40
2018-06-21T12:59:04.119Z,1.50
2018-06-21T13:00:04.223Z,1.60
2018-06-21T13:01:04.328Z,1.40
2018-06-21T13:02:04.432Z,1.30
2018-06-21T13:03:04.536Z,1.30
2018-06-21T13:04:04.634Z,1.20
2018-06-21T13:05:04.744Z,1.40
2018-06-21T13:06:04.848Z,1.20
2018-06-21T13:07:04.953Z,1.70
2018-06-21T13:08:05.057Z,1.50
2018-06-21T13:09:05.163Z,1.40
2018-06-21T13:10:05.268Z,1.60
2018-06-21T13:11:05.372Z,1.50
2018-06-21T13:12:05.475Z,1.60
2018-06-21T13:13:05.579Z,1.50
2018-06-21T13:14:05.684Z,1.60
2018-06-21T13:15:05.792Z,1.70
2018-06-21T13:16:05.893Z,1.50
2018-06-21T13:17:05.997Z,1.60
2018-06-21T13:18:06.101Z,1.30
2018-06-21T13:19:06.222Z,1.70
2018-06-21T13:20:06.318Z,1.30